Time;durP1;ratioP1;P1;durP2;ratioP2;P2;SDS_P1;SDS_P2;PMS_P1;PMS_P2;Temp;Humidity;BMP_temperature;BMP_pressure;BME280_temperature;BME280_humidity;BME280_pressure;Samples;Min_cycle;Max_cycle;Signal;HPM_P1;HPM_P2
2021/05/10 00:00:42;;;;;;;14.25;8.30;;;;;;;8.06;59.98;101230.25;1702752;82;21501;-69
2021/05/10 00:03:10;;;;;;;13.00;8.25;;;;;;;8.05;60.15;101235.36;1702655;82;21336;-68
2021/05/10 00:05:38;;;;;;;13.20;8.40;;;;;;;8.01;60.33;101232.61;1702753;84;21114;-69
2021/05/10 00:08:07;;;;;;;16.32;8.25;;;;;;;7.97;60.53;101233.44;1702713;83;21157;-68
2021/05/10 00:10:35;;;;;;;14.63;8.23;;;;;;;7.93;60.57;101232.91;1702721;84;21091;-68
2021/05/10 00:13:05;;;;;;;17.35;8.60;;;;;;;7.89;60.55;101232.88;1702715;83;21082;-69
2021/05/10 00:15:34;;;;;;;16.80;7.90;;;;;;;7.83;60.55;101236.24;1702758;84;21107;-68
2021/05/10 00:18:04;;;;;;;16.70;8.28;;;;;;;7.78;60.80;101236.34;1702593;84;21087;-68
2021/05/10 00:20:33;;;;;;;12.82;7.75;;;;;;;7.76;61.08;101232.41;1702614;83;21066;-68
2021/05/10 00:23:01;;;;;;;16.73;7.83;;;;;;;7.76;61.17;101235.64;1702822;84;21094;-68
2021/05/10 00:25:30;;;;;;;16.75;7.67;;;;;;;7.74;61.34;101233.58;1702611;83;21298;-68
2021/05/10 00:27:57;;;;;;;14.95;7.85;;;;;;;7.70;61.50;101230.31;1728329;83;21310;-68
2021/05/10 00:30:27;;;;;;;15.58;7.95;;;;;;;7.71;61.66;101236.13;1730292;83;21040;-68
2021/05/10 00:32:56;;;;;;;15.40;8.38;;;;;;;7.72;61.87;101236.98;1730348;83;21078;-69
2021/05/10 00:35:24;;;;;;;18.42;8.98;;;;;;;7.71;62.00;101232.03;1730399;83;21378;-69
2021/05/10 00:37:52;;;;;;;11.15;7.15;;;;;;;7.71;62.11;101227.08;1714360;83;21189;-69
2021/05/10 00:40:22;;;;;;;15.98;8.28;;;;;;;7.74;62.07;101238.53;1702716;82;21249;-69
2021/05/10 00:42:49;;;;;;;13.45;8.18;;;;;;;7.72;62.08;101232.89;1702578;84;21424;-69
2021/05/10 00:45:17;;;;;;;14.65;7.85;;;;;;;7.69;62.15;101240.02;1702659;83;21328;-69
2021/05/10 00:47:44;;;;;;;13.93;7.95;;;;;;;7.64;62.35;101239.13;1702670;84;21231;-69
2021/05/10 00:50:13;;;;;;;15.60;7.50;;;;;;;7.58;62.61;101237.04;1702835;82;21122;-69
2021/05/10 00:52:40;;;;;;;14.63;7.55;;;;;;;7.48;62.88;101236.27;1702989;83;21196;-69
2021/05/10 00:55:09;;;;;;;17.10;7.80;;;;;;;7.44;63.20;101238.45;1702745;83;21374;-69
2021/05/10 00:58:01;;;;;;;15.53;7.87;;;;;;;7.42;63.47;101236.39;1707081;83;21097;-69
2021/05/10 01:00:26;;;;;;;18.55;8.13;;;;;;;7.45;63.77;101245.62;1708162;84;21384;-69
2021/05/10 01:02:53;;;;;;;21.20;8.85;;;;;;;7.51;63.89;101253.69;1708246;84;21347;-69
2021/05/10 01:05:21;;;;;;;17.92;8.30;;;;;;;7.52;63.92;101248.58;1708461;84;21066;-68
2021/05/10 01:07:48;;;;;;;16.93;9.93;;;;;;;7.52;64.07;101258.98;1708301;84;21071;-69
2021/05/10 01:10:18;;;;;;;17.98;9.25;;;;;;;7.50;64.25;101257.42;1708324;84;21089;-69
2021/05/10 01:12:47;;;;;;;18.02;7.95;;;;;;;7.50;64.35;101255.55;1708438;83;21051;-69
2021/05/10 01:15:17;;;;;;;19.70;8.65;;;;;;;7.51;64.42;101259.14;1708314;84;21339;-68
2021/05/10 01:17:45;;;;;;;17.67;7.92;;;;;;;7.50;64.45;101260.15;1708445;84;21102;-69
2021/05/10 01:20:14;;;;;;;19.40;8.00;;;;;;;7.44;64.46;101256.69;1708386;84;21110;-69
2021/05/10 01:22:46;;;;;;;15.00;7.62;;;;;;;7.40;64.60;101260.73;1708346;84;21754;-69
2021/05/10 01:25:20;;;;;;;16.90;8.00;;;;;;;7.35;64.92;101262.57;1708318;84;21093;-68
2021/05/10 01:27:47;;;;;;;14.95;7.78;;;;;;;7.33;65.17;101265.95;1728382;82;21089;-69
2021/05/10 01:30:27;;;;;;;13.50;8.13;;;;;;;7.31;65.16;101266.12;1737920;82;21105;-68
2021/05/10 01:32:55;;;;;;;19.07;8.55;;;;;;;7.31;64.98;101272.93;1737718;81;21094;-68
2021/05/10 01:35:29;;;;;;;19.23;8.10;;;;;;;7.26;64.85;101268.45;1737856;81;21081;-68
2021/05/10 01:37:57;;;;;;;14.95;7.50;;;;;;;7.23;64.87;101267.91;1719631;82;21298;-68
2021/05/10 01:40:26;;;;;;;18.92;8.28;;;;;;;7.22;65.01;101267.05;1708222;84;21090;-68
2021/05/10 01:42:53;;;;;;;17.67;8.73;;;;;;;7.23;65.20;101266.54;1708385;82;21189;-68
2021/05/10 01:45:20;;;;;;;18.95;8.08;;;;;;;7.25;65.35;101276.27;1708355;84;21034;-68
2021/05/10 01:47:49;;;;;;;18.42;8.00;;;;;;;7.26;65.44;101271.68;1708270;84;21312;-68
2021/05/10 01:50:19;;;;;;;21.93;9.10;;;;;;;7.27;65.64;101275.61;1708430;84;21085;-68
2021/05/10 01:52:47;;;;;;;16.97;8.18;;;;;;;7.28;65.78;101275.11;1708272;84;21278;-68
2021/05/10 01:55:16;;;;;;;18.25;8.50;;;;;;;7.29;65.89;101271.37;1708267;84;21353;-68
2021/05/10 01:57:54;;;;;;;18.27;9.50;;;;;;;7.30;65.91;101269.85;1708316;83;21101;-68
2021/05/10 02:00:33;;;;;;;15.13;8.43;;;;;;;7.31;65.81;101281.11;1708035;82;21902;-68
2021/05/10 02:03:02;;;;;;;19.92;8.58;;;;;;;7.29;65.92;101282.27;1708308;84;21070;-69
2021/05/10 02:05:30;;;;;;;20.27;9.10;;;;;;;7.28;65.92;101279.20;1708332;82;21074;-69
2021/05/10 02:07:59;;;;;;;19.55;8.75;;;;;;;7.25;65.85;101283.59;1708217;84;21361;-69
2021/05/10 02:10:39;;;;;;;21.27;8.95;;;;;;;7.21;65.95;101283.05;1708255;84;21102;-69
2021/05/10 02:13:17;;;;;;;16.48;8.88;;;;;;;7.20;66.07;101289.52;1708430;84;21625;-69
2021/05/10 02:15:53;;;;;;;19.37;9.53;;;;;;;7.17;66.27;101299.36;1708297;84;21086;-69
2021/05/10 02:18:23;;;;;;;18.17;8.98;;;;;;;7.13;66.46;101297.92;1708341;84;21290;-69
2021/05/10 02:20:50;;;;;;;18.27;8.85;;;;;;;7.10;66.64;101294.64;1708231;84;21173;-69
2021/05/10 02:23:20;;;;;;;16.70;8.10;;;;;;;7.08;66.50;101290.70;1708418;84;21324;-69
2021/05/10 02:26:01;;;;;;;19.45;8.85;;;;;;;6.96;66.55;101300.97;1709537;82;21086;-69
2021/05/10 02:28:30;;;;;;;15.93;8.68;;;;;;;6.88;66.75;101302.73;1737499;82;21299;-69
2021/05/10 02:30:59;;;;;;;14.90;7.72;;;;;;;6.85;66.90;101301.17;1737767;81;21228;-69
2021/05/10 02:33:30;;;;;;;22.82;9.60;;;;;;;6.82;67.10;101302.84;1737867;82;21173;-69
2021/05/10 02:35:58;;;;;;;20.60;9.18;;;;;;;6.81;67.25;101303.84;1737582;82;21300;-68
2021/05/10 02:38:25;;;;;;;20.27;9.60;;;;;;;6.83;67.44;101305.05;1713744;82;21069;-69
2021/05/10 02:40:53;;;;;;;17.10;9.25;;;;;;;6.85;67.45;101297.59;1708272;82;21343;-68
2021/05/10 02:43:22;;;;;;;15.58;8.03;;;;;;;6.88;67.53;101298.65;1708252;84;21082;-68
2021/05/10 02:45:51;;;;;;;21.00;8.38;;;;;;;6.89;67.40;101299.00;1708324;82;21228;-68
2021/05/10 02:48:18;;;;;;;17.45;8.83;;;;;;;6.88;67.32;101303.59;1708394;84;21819;-68
2021/05/10 02:50:46;;;;;;;18.02;8.20;;;;;;;6.91;67.33;101314.69;1708275;84;21054;-68
2021/05/10 02:53:14;;;;;;;17.92;8.30;;;;;;;6.91;67.29;101307.87;1708378;84;21076;-68
2021/05/10 02:55:41;;;;;;;18.77;8.40;;;;;;;6.91;67.37;101313.33;1708219;83;21352;-68
2021/05/10 02:58:09;;;;;;;18.75;9.08;;;;;;;6.91;67.23;101309.23;1708266;83;21352;-68
2021/05/10 03:00:36;;;;;;;22.80;8.85;;;;;;;6.91;67.28;101315.55;1708358;84;21129;-68
2021/05/10 03:03:04;;;;;;;21.40;9.78;;;;;;;6.88;67.14;101319.08;1708237;84;21324;-68
2021/05/10 03:05:32;;;;;;;22.62;10.20;;;;;;;6.85;67.15;101319.38;1708350;84;21331;-68
2021/05/10 03:08:01;;;;;;;23.30;9.73;;;;;;;6.87;67.10;101326.90;1708255;84;21373;-68
2021/05/10 03:10:29;;;;;;;24.15;10.63;;;;;;;6.91;66.94;101325.59;1708294;84;21085;-68
2021/05/10 03:12:57;;;;;;;20.00;9.83;;;;;;;6.88;66.87;101324.53;1708416;84;21294;-69
2021/05/10 03:15:24;;;;;;;20.05;9.80;;;;;;;6.85;66.95;101321.60;1708252;84;21077;-68
2021/05/10 03:17:52;;;;;;;20.45;10.23;;;;;;;6.84;67.27;101323.12;1708267;82;21320;-69
2021/05/10 03:20:22;;;;;;;19.50;9.50;;;;;;;6.90;67.46;101322.52;1708238;84;21098;-68
2021/05/10 03:22:52;;;;;;;17.23;8.80;;;;;;;6.97;67.48;101319.53;1708307;82;21362;-69
2021/05/10 03:25:23;;;;;;;23.60;10.48;;;;;;;7.03;67.38;101324.38;1708369;84;21200;-68
2021/05/10 03:27:50;;;;;;;20.32;8.40;;;;;;;7.06;67.40;101325.43;1734258;82;21074;-68
2021/05/10 03:30:20;;;;;;;25.70;9.35;;;;;;;7.11;67.36;101325.83;1737666;82;21351;-69
2021/05/10 03:32:48;;;;;;;18.57;9.35;;;;;;;7.17;67.34;101327.12;1737675;82;21205;-68
2021/05/10 03:35:15;;;;;;;20.90;10.03;;;;;;;7.22;67.26;101333.83;1737823;81;21074;-68
2021/05/10 03:37:47;;;;;;;21.73;10.38;;;;;;;7.28;67.06;101337.30;1722294;82;21101;-69
2021/05/10 03:40:15;;;;;;;20.35;9.55;;;;;;;7.32;66.93;101335.13;1708071;84;21747;-69
2021/05/10 03:42:44;;;;;;;23.12;10.75;;;;;;;7.37;66.64;101336.02;1708422;84;21079;-68
2021/05/10 03:45:12;;;;;;;18.65;9.83;;;;;;;7.39;66.43;101338.09;1708195;82;21327;-68
2021/05/10 03:47:41;;;;;;;21.45;10.15;;;;;;;7.42;66.42;101345.97;1708291;82;21106;-68
2021/05/10 03:50:16;;;;;;;21.10;9.20;;;;;;;7.48;66.29;101349.44;1708265;84;21133;-69
2021/05/10 03:52:44;;;;;;;18.12;9.75;;;;;;;7.54;66.10;101354.27;1708134;83;21877;-68
2021/05/10 03:55:16;;;;;;;18.95;9.10;;;;;;;7.60;65.94;101348.20;1708166;83;21083;-68
2021/05/10 03:57:44;;;;;;;19.80;10.18;;;;;;;7.65;65.87;101351.31;1708177;83;21154;-68
2021/05/10 04:00:13;;;;;;;20.08;9.83;;;;;;;7.70;65.83;101350.84;1708272;84;21145;-68
2021/05/10 04:02:43;;;;;;;20.45;10.93;;;;;;;7.76;65.69;101352.45;1708350;84;21082;-68
2021/05/10 04:07:55;;;;;;;17.48;9.08;;;;;;;7.89;65.27;101358.39;1708279;84;21364;-68
2021/05/10 04:10:36;;;;;;;19.05;9.88;;;;;;;7.95;65.03;101352.81;1707410;82;21071;-69
2021/05/10 04:15:33;;;;;;;21.68;9.75;;;;;;;8.06;64.68;101360.76;1708275;82;21086;-68
2021/05/10 04:18:01;;;;;;;19.92;9.10;;;;;;;8.15;64.53;101364.41;1708119;83;21093;-68
2021/05/10 04:20:29;;;;;;;24.43;9.80;;;;;;;8.24;64.38;101363.45;1708236;84;21302;-68
2021/05/10 04:22:56;;;;;;;21.62;9.25;;;;;;;8.32;64.26;101364.03;1708226;83;21233;-68
2021/05/10 04:25:23;;;;;;;23.42;9.65;;;;;;;8.39;64.14;101360.53;1708334;84;21181;-68
2021/05/10 04:27:52;;;;;;;18.55;9.03;;;;;;;8.46;63.95;101364.36;1734621;82;21067;-69
2021/05/10 04:30:21;;;;;;;24.30;9.58;;;;;;;8.53;63.75;101364.07;1737841;81;21098;-69
2021/05/10 04:32:49;;;;;;;17.75;8.80;;;;;;;8.61;63.40;101361.04;1737818;82;21197;-68
2021/05/10 04:35:18;;;;;;;16.10;9.43;;;;;;;8.69;63.01;101365.19;1737873;82;21055;-68
2021/05/10 04:37:46;;;;;;;22.95;12.05;;;;;;;8.76;62.57;101364.89;1721965;82;21085;-68
2021/05/10 04:40:15;;;;;;;17.10;8.83;;;;;;;8.85;61.98;101363.91;1708178;84;21510;-68
2021/05/10 04:42:42;;;;;;;18.37;8.55;;;;;;;8.96;61.50;101373.70;1708374;84;21371;-68
2021/05/10 04:45:11;;;;;;;14.93;8.23;;;;;;;9.05;61.12;101374.94;1708241;84;21321;-68
2021/05/10 04:47:38;;;;;;;14.25;7.67;;;;;;;9.15;60.66;101378.43;1708373;84;21082;-68
2021/05/10 04:50:09;;;;;;;11.65;7.25;;;;;;;9.25;60.14;101376.08;1708152;82;21089;-68
2021/05/10 04:52:40;;;;;;;11.15;6.15;;;;;;;9.33;59.69;101373.37;1708418;84;21251;-68
2021/05/10 04:55:09;;;;;;;10.82;5.85;;;;;;;9.42;59.15;101376.47;1708147;84;21220;-68
2021/05/10 04:57:36;;;;;;;12.25;6.22;;;;;;;9.49;58.69;101381.63;1707595;82;21114;-68
2021/05/10 05:00:07;;;;;;;8.05;5.22;;;;;;;9.57;58.14;101383.52;1702596;83;21176;-68
2021/05/10 05:02:35;;;;;;;10.08;5.97;;;;;;;9.64;57.44;101381.31;1702582;83;21341;-69
2021/05/10 05:05:04;;;;;;;11.12;6.95;;;;;;;9.73;56.87;101384.92;1702775;82;21404;-69
2021/05/10 05:07:32;;;;;;;8.80;5.37;;;;;;;9.83;56.48;101387.88;1702610;84;21097;-68
2021/05/10 05:10:00;;;;;;;7.67;4.65;;;;;;;9.90;56.11;101388.58;1702492;82;21072;-68
2021/05/10 05:12:27;;;;;;;11.38;6.17;;;;;;;9.96;55.71;101388.75;1702600;83;21208;-68
2021/05/10 05:14:56;;;;;;;8.83;4.78;;;;;;;10.02;55.41;101387.22;1727871;81;21083;-69
2021/05/10 05:17:24;;;;;;;7.90;4.30;;;;;;;10.09;55.03;101385.00;1731175;82;21066;-69
2021/05/10 05:19:51;;;;;;;8.60;3.90;;;;;;;10.16;54.60;101385.17;1730705;81;21157;-68
2021/05/10 05:22:19;;;;;;;7.15;3.50;;;;;;;10.23;54.23;101387.60;1730412;82;21324;-69
2021/05/10 05:24:46;;;;;;;7.22;3.65;;;;;;;10.31;53.80;101390.34;1730454;82;21046;-68
2021/05/10 05:27:13;;;;;;;6.15;3.20;;;;;;;10.39;53.06;101390.84;1730279;82;21051;-68
2021/05/10 05:29:40;;;;;;;7.00;4.17;;;;;;;10.48;52.41;101386.59;1730485;82;21410;-68
2021/05/10 05:32:08;;;;;;;6.65;3.60;;;;;;;10.57;52.05;101394.28;1730278;82;21287;-68
2021/05/10 05:34:35;;;;;;;9.78;3.42;;;;;;;10.66;51.59;101390.50;1730584;81;21098;-69
2021/05/10 05:37:03;;;;;;;7.50;3.62;;;;;;;10.74;50.96;101393.74;1723527;82;21071;-69
2021/05/10 05:39:31;;;;;;;7.97;3.30;;;;;;;10.83;50.77;101402.28;1702679;84;21330;-69
2021/05/10 05:41:59;;;;;;;5.17;3.05;;;;;;;10.92;50.44;101398.49;1702615;83;21285;-69
2021/05/10 05:44:32;;;;;;;6.20;2.87;;;;;;;11.01;49.84;101395.21;1702648;84;21331;-69
2021/05/10 05:47:01;;;;;;;6.55;2.77;;;;;;;11.11;49.43;101393.15;1702389;84;21072;-70
2021/05/10 05:49:26;;;;;;;3.65;2.60;;;;;;;11.20;48.87;101398.09;1702723;82;21793;-69
2021/05/10 05:51:54;;;;;;;4.30;2.92;;;;;;;11.28;48.86;101396.16;1702679;82;21195;-70
2021/05/10 05:54:21;;;;;;;7.08;2.77;;;;;;;11.37;48.63;101396.98;1702629;84;21137;-69
2021/05/10 05:56:50;;;;;;;7.65;2.85;;;;;;;11.45;48.66;101394.20;1702689;84;21316;-69
2021/05/10 05:59:17;;;;;;;4.15;2.50;;;;;;;11.52;48.08;101389.70;1706408;83;21356;-69
2021/05/10 06:01:47;;;;;;;5.55;3.30;;;;;;;11.60;47.41;101388.28;1708319;82;21831;-69
2021/05/10 06:04:14;;;;;;;6.62;3.08;;;;;;;11.69;48.00;101391.32;1708216;84;21691;-69
2021/05/10 06:06:41;;;;;;;5.12;2.83;;;;;;;11.78;47.45;101392.70;1708360;84;21257;-68
2021/05/10 06:09:10;;;;;;;8.25;3.35;;;;;;;11.85;46.99;101386.30;1708226;84;21324;-69
2021/05/10 06:11:38;;;;;;;8.20;3.17;;;;;;;11.94;47.15;101391.22;1708521;84;21093;-69
2021/05/10 06:14:06;;;;;;;4.50;2.27;;;;;;;12.03;47.28;101391.50;1716438;82;21095;-69
2021/05/10 06:16:33;;;;;;;4.62;2.80;;;;;;;12.13;46.02;101389.36;1736053;82;21094;-69
2021/05/10 06:19:01;;;;;;;7.28;3.20;;;;;;;12.19;45.81;101383.65;1736126;82;21043;-69
2021/05/10 06:21:28;;;;;;;6.67;2.83;;;;;;;12.27;45.75;101387.70;1736138;82;21090;-68
2021/05/10 06:23:56;;;;;;;9.38;3.45;;;;;;;12.33;45.40;101385.06;1736033;82;21042;-70
2021/05/10 06:26:23;;;;;;;5.40;2.95;;;;;;;12.42;44.82;101393.27;1709223;83;21154;-70
2021/05/10 06:28:51;;;;;;;6.45;2.65;;;;;;;12.49;45.15;101385.99;1716751;83;21063;-68
2021/05/10 06:31:18;;;;;;;7.20;2.85;;;;;;;12.60;44.19;101389.66;1716676;83;21060;-69
2021/05/10 06:33:47;;;;;;;4.95;2.47;;;;;;;12.72;44.09;101393.66;1718088;82;21064;-69
2021/05/10 06:36:16;;;;;;;5.75;2.55;;;;;;;12.87;44.00;101394.53;1734153;82;21079;-70
2021/05/10 06:38:45;;;;;;;4.40;2.70;;;;;;;12.99;43.37;101388.89;1733241;82;21828;-69
2021/05/10 06:41:19;;;;;;;4.30;2.55;;;;;;;13.13;42.89;101394.09;1712960;82;21277;-70
2021/05/10 06:43:47;;;;;;;9.70;3.40;;;;;;;13.26;42.36;101393.46;1716275;83;21356;-70
2021/05/10 06:46:15;;;;;;;5.15;2.90;;;;;;;13.36;42.36;101402.28;1716308;82;21245;-71
2021/05/10 06:48:42;;;;;;;5.55;3.12;;;;;;;13.46;42.37;101397.33;1716532;83;21083;-70
2021/05/10 06:51:10;;;;;;;6.72;3.37;;;;;;;13.59;42.12;101395.26;1716015;82;21357;-70
2021/05/10 06:53:37;;;;;;;6.97;2.77;;;;;;;13.73;42.07;101394.92;1716483;82;21062;-72
2021/05/10 06:56:05;;;;;;;4.70;2.80;;;;;;;13.88;41.79;101398.49;1718362;82;21063;-69
2021/05/10 06:58:32;;;;;;;4.12;2.25;;;;;;;13.99;41.25;101392.47;1705657;82;21297;-71
2021/05/10 07:01:00;;;;;;;6.45;2.83;;;;;;;14.11;40.69;101393.65;1730957;81;21165;-71
2021/05/10 07:03:27;;;;;;;5.50;2.60;;;;;;;14.24;40.24;101398.44;1733465;81;21074;-70
2021/05/10 07:05:55;;;;;;;4.70;2.15;;;;;;;14.33;39.45;101395.91;1731730;82;21102;-69
2021/05/10 07:08:22;;;;;;;5.00;2.30;;;;;;;14.41;39.21;101388.88;1731715;81;21203;-69
2021/05/10 07:10:51;;;;;;;4.37;2.02;;;;;;;14.50;39.15;101388.23;1731825;81;21834;-69
2021/05/10 07:13:27;;;;;;;4.30;2.10;;;;;;;14.61;38.60;101386.31;1731321;81;21070;-70
2021/05/10 07:15:55;;;;;;;7.58;1.90;;;;;;;14.71;37.73;101381.82;1732141;82;21074;-70
2021/05/10 07:18:23;;;;;;;4.15;2.17;;;;;;;14.79;37.12;101388.04;1731131;82;21373;-70
2021/05/10 07:20:51;;;;;;;5.05;2.42;;;;;;;14.88;36.38;101390.97;1729193;81;21271;-70
2021/05/10 07:23:19;;;;;;;3.42;2.10;;;;;;;14.96;36.02;101384.47;1741599;82;21354;-69
2021/05/10 07:25:48;;;;;;;2.35;1.40;;;;;;;15.03;35.64;101389.50;1740564;82;21264;-69
2021/05/10 07:28:18;;;;;;;4.58;1.30;;;;;;;15.08;34.54;101385.61;1694920;84;21037;-70
2021/05/10 07:30:47;;;;;;;3.33;1.70;;;;;;;15.13;34.55;101385.84;1710765;83;21281;-69
2021/05/10 07:33:15;;;;;;;2.72;1.50;;;;;;;15.21;34.19;101383.45;1738140;81;21032;-70
2021/05/10 07:35:42;;;;;;;2.37;1.55;;;;;;;15.31;34.17;101379.78;1746230;82;21082;-70
2021/05/10 07:38:12;;;;;;;3.45;1.60;;;;;;;15.42;33.58;101381.95;1750563;79;21108;-71
2021/05/10 07:40:46;;;;;;;3.02;1.57;;;;;;;15.49;33.46;101370.41;1762774;80;21054;-70
2021/05/10 07:43:13;;;;;;;4.35;1.50;;;;;;;15.59;33.16;101368.67;1769879;80;21033;-70
2021/05/10 07:45:42;;;;;;;3.58;1.60;;;;;;;15.65;32.80;101366.49;1784244;79;21042;-70
2021/05/10 07:48:10;;;;;;;2.40;1.50;;;;;;;15.68;32.49;101363.31;1766591;80;21077;-70
2021/05/10 07:50:37;;;;;;;4.25;2.00;;;;;;;15.73;32.65;101363.55;1762188;81;21284;-70
2021/05/10 07:53:05;;;;;;;3.08;1.90;;;;;;;15.81;32.80;101366.11;1762203;81;21089;-70
2021/05/10 07:55:37;;;;;;;5.17;1.90;;;;;;;15.92;32.98;101355.51;1755673;80;21188;-69
2021/05/10 07:58:03;;;;;;;4.47;1.82;;;;;;;16.02;32.92;101347.66;1747749;81;21181;-69
2021/05/10 08:00:39;;;;;;;4.45;1.92;;;;;;;16.11;33.00;101348.63;1740685;79;21129;-70
2021/05/10 08:03:08;;;;;;;3.92;1.90;;;;;;;16.19;32.58;101340.66;1740051;81;21097;-70
2021/05/10 08:05:37;;;;;;;6.95;1.98;;;;;;;16.27;32.29;101339.09;1755552;81;21152;-69
2021/05/10 08:08:05;;;;;;;5.03;1.80;;;;;;;16.34;32.38;101342.71;1770908;79;21140;-69
2021/05/10 08:10:33;;;;;;;2.72;1.85;;;;;;;16.41;31.61;101342.71;1770843;79;21074;-69
2021/05/10 08:13:00;;;;;;;3.27;1.50;;;;;;;16.38;31.90;101345.91;1770976;80;21022;-69
2021/05/10 08:15:28;;;;;;;3.47;1.72;;;;;;;16.35;31.46;101347.72;1770969;79;21085;-70
2021/05/10 08:17:57;;;;;;;4.83;1.40;;;;;;;16.31;31.47;101343.67;1770759;79;21782;-71
2021/05/10 08:20:26;;;;;;;3.37;1.80;;;;;;;16.32;31.72;101342.61;1768510;79;21006;-67
2021/05/10 08:22:57;;;;;;;2.67;1.50;;;;;;;16.41;31.70;101337.18;1769243;80;21045;-66
2021/05/10 08:25:25;;;;;;;2.55;1.50;;;;;;;16.55;31.50;101337.49;1739780;81;21073;-66
2021/05/10 08:27:52;;;;;;;4.53;1.60;;;;;;;16.68;31.12;101338.89;1739486;81;21301;-66
2021/05/10 08:30:22;;;;;;;1.92;1.40;;;;;;;16.81;30.98;101331.09;1739767;81;21094;-71
2021/05/10 08:32:51;;;;;;;2.75;1.52;;;;;;;16.94;30.53;101330.25;1739683;82;21293;-70
2021/05/10 08:35:18;;;;;;;2.95;1.50;;;;;;;17.02;30.67;101323.09;1739598;82;21094;-68
2021/05/10 08:37:45;;;;;;;3.70;1.90;;;;;;;17.14;30.11;101317.72;1723753;81;21075;-69
2021/05/10 08:40:14;;;;;;;2.27;1.30;;;;;;;17.25;29.71;101319.28;1710219;82;21077;-66
2021/05/10 08:42:45;;;;;;;3.37;1.55;;;;;;;17.27;29.48;101318.52;1721259;81;21368;-67
2021/05/10 08:45:20;;;;;;;2.37;1.55;;;;;;;17.24;29.46;101313.42;1739073;82;21106;-68
2021/05/10 08:47:51;;;;;;;2.52;1.77;;;;;;;17.24;29.29;101316.19;1735587;81;21062;-69
2021/05/10 08:50:20;;;;;;;2.02;1.20;;;;;;;17.25;29.31;101305.96;1749387;81;21227;-67
2021/05/10 08:52:47;;;;;;;2.08;1.40;;;;;;;17.29;29.20;101298.37;1767877;79;21081;-67
2021/05/10 08:55:16;;;;;;;3.27;1.40;;;;;;;17.39;29.15;101293.75;1767717;81;21073;-68
2021/05/10 08:57:44;;;;;;;3.25;1.45;;;;;;;17.49;28.03;101301.59;1767784;81;21077;-66
2021/05/10 09:00:14;;;;;;;4.40;1.72;;;;;;;17.44;28.18;101296.70;1759985;80;21114;-67
2021/05/10 09:02:41;;;;;;;2.20;1.50;;;;;;;17.43;28.32;101291.70;1782325;80;21065;-68
2021/05/10 09:05:11;;;;;;;3.20;1.30;;;;;;;17.46;28.39;101289.55;1770067;80;21166;-69
2021/05/10 09:07:40;;;;;;;3.55;1.60;;;;;;;17.48;28.19;101291.03;1762632;80;21032;-67
2021/05/10 09:10:12;;;;;;;2.15;1.45;;;;;;;17.53;28.33;101277.90;1762773;81;21797;-64
2021/05/10 09:12:47;;;;;;;2.62;1.60;;;;;;;17.60;28.35;101275.97;1762778;81;21068;-67
2021/05/10 09:15:36;;;;;;;3.92;1.72;;;;;;;17.75;28.14;101280.70;1762702;81;21056;-71
2021/05/10 09:18:08;;;;;;;2.30;1.60;;;;;;;17.91;27.92;101282.93;1762747;81;21262;-74
2021/05/10 09:20:42;;;;;;;3.25;1.70;;;;;;;18.06;27.66;101276.52;1762452;81;21303;-67
2021/05/10 09:23:13;;;;;;;3.05;1.62;;;;;;;18.14;27.28;101275.92;1762376;81;21068;-67
2021/05/10 09:25:47;;;;;;;2.12;1.45;;;;;;;18.19;27.07;101271.94;1762130;81;21086;-64
2021/05/10 09:28:28;;;;;;;2.67;1.32;;;;;;;18.24;26.87;101274.91;1762095;81;21126;-69
2021/05/10 09:31:04;;;;;;;3.08;1.47;;;;;;;18.30;26.88;101270.69;1762266;81;21677;-70
2021/05/10 09:33:47;;;;;;;3.60;1.60;;;;;;;18.37;26.90;101272.86;1759265;81;21190;-69
2021/05/10 09:36:38;;;;;;;2.65;1.50;;;;;;;18.42;26.28;101270.79;1762554;81;21221;-69
2021/05/10 09:39:27;;;;;;;4.75;1.80;;;;;;;18.40;26.44;101270.17;1764105;81;21748;-70
2021/05/10 09:42:02;;;;;;;4.67;1.77;;;;;;;18.46;26.80;101269.80;1763245;80;21063;-67
2021/05/10 09:44:40;;;;;;;4.95;2.72;;;;;;;18.62;26.23;101263.14;1764303;80;21165;-66
2021/05/10 09:47:09;;;;;;;3.83;2.60;;;;;;;18.78;25.92;101266.39;1764306;81;21027;-69
2021/05/10 09:49:50;;;;;;;3.90;1.90;;;;;;;18.89;25.72;101269.81;1764392;80;21173;-68
2021/05/10 09:52:22;;;;;;;2.20;1.67;;;;;;;18.98;25.54;101267.04;1764326;80;21384;-66
2021/05/10 09:55:00;;;;;;;3.58;1.60;;;;;;;19.01;25.38;101251.30;1764380;81;21114;-65
2021/05/10 09:57:29;;;;;;;3.95;2.00;;;;;;;19.04;25.47;101252.22;1764376;81;21146;-68
2021/05/10 10:00:20;;;;;;;3.62;1.82;;;;;;;19.10;25.38;101252.67;1767798;79;22017;-65
2021/05/10 10:02:48;;;;;;;2.92;1.50;;;;;;;19.13;25.11;101253.59;1775144;80;21557;-68
2021/05/10 10:05:17;;;;;;;3.72;1.60;;;;;;;19.08;24.71;101242.88;1774799;79;21133;-66
2021/05/10 10:07:44;;;;;;;1.98;1.37;;;;;;;18.95;24.47;101239.73;1774604;80;21050;-72
2021/05/10 10:10:13;;;;;;;3.80;1.80;;;;;;;18.90;24.69;101236.80;1774734;80;21003;-70
2021/05/10 10:12:45;;;;;;;3.05;1.50;;;;;;;18.89;24.78;101231.78;1774442;79;21026;-67
2021/05/10 10:15:17;;;;;;;2.35;1.67;;;;;;;18.85;24.60;101226.36;1774472;79;21701;-68
2021/05/10 10:17:46;;;;;;;3.40;1.42;;;;;;;18.86;24.78;101223.92;1774500;79;21635;-67
2021/05/10 10:20:15;;;;;;;4.83;2.40;;;;;;;18.94;24.84;101219.98;1774564;79;21119;-66
2021/05/10 10:22:43;;;;;;;1.72;1.55;;;;;;;19.07;24.83;101218.96;1723917;80;21258;-66
2021/05/10 10:25:11;;;;;;;3.17;1.37;;;;;;;19.22;24.50;101211.91;1774370;79;21002;-66
2021/05/10 10:27:41;;;;;;;2.90;1.60;;;;;;;19.42;23.59;101212.16;1770451;79;21062;-63
2021/05/10 10:30:10;;;;;;;4.28;1.90;;;;;;;19.53;23.66;101212.80;1774583;79;21010;-68
2021/05/10 10:32:37;;;;;;;6.62;1.92;;;;;;;19.52;23.13;101206.91;1774661;79;21010;-68
2021/05/10 10:35:05;;;;;;;4.60;1.98;;;;;;;19.35;23.44;101203.08;1774638;79;21030;-67
2021/05/10 10:37:34;;;;;;;4.42;2.67;;;;;;;19.31;24.82;101191.04;1760652;79;21057;-69
2021/05/10 10:40:03;;;;;;;8.23;2.20;;;;;;;19.48;24.54;101191.76;1783713;80;21320;-65
2021/05/10 10:42:33;;;;;;;6.45;2.90;;;;;;;19.67;24.36;101182.32;1789722;78;21049;-70
2021/05/10 10:45:03;;;;;;;4.87;2.95;;;;;;;19.88;23.98;101180.36;1789986;78;21033;-65
2021/05/10 10:47:53;;;;;;;2.85;2.47;;;;;;;19.97;23.53;101181.39;1790075;78;21058;-71
2021/05/10 10:50:25;;;;;;;3.30;2.20;;;;;;;20.04;23.65;101183.51;1789961;78;21045;-65
2021/05/10 10:53:03;;;;;;;5.37;3.00;;;;;;;20.15;23.66;101172.92;1789628;78;21285;-65
2021/05/10 10:55:34;;;;;;;2.77;1.92;;;;;;;20.30;23.93;101176.09;1789770;79;21682;-64
2021/05/10 10:58:20;;;;;;;3.72;2.00;;;;;;;20.45;23.13;101178.41;1789811;79;21847;-68
2021/05/10 11:01:03;;;;;;;3.90;1.80;;;;;;;20.51;22.77;101179.67;1764259;79;21175;-65
2021/05/10 11:03:35;;;;;;;4.42;2.20;;;;;;;20.58;22.58;101176.21;1771292;79;21006;-68
2021/05/10 11:06:07;;;;;;;4.62;2.27;;;;;;;20.67;22.63;101173.05;1771139;79;21042;-67
2021/05/10 11:08:51;;;;;;;3.95;2.20;;;;;;;20.74;22.77;101164.00;1750396;80;21212;-63
2021/05/10 11:11:39;;;;;;;4.05;2.25;;;;;;;20.84;22.70;101156.73;1736173;80;21843;-62
2021/05/10 11:14:14;;;;;;;3.40;2.10;;;;;;;20.96;22.57;101146.10;1746948;80;21392;-63
2021/05/10 11:16:54;;;;;;;3.30;2.17;;;;;;;21.06;22.69;101138.78;1720788;82;21082;-70
2021/05/10 11:19:37;;;;;;;3.27;2.02;;;;;;;21.12;22.26;101141.13;1752096;80;21133;-65
2021/05/10 11:22:33;;;;;;;2.80;2.10;;;;;;;21.03;22.69;101137.89;1717992;81;21101;-64
2021/05/10 11:25:38;;;;;;;3.93;2.03;;;;;;;21.09;22.89;101136.89;1724786;82;21196;-66
2021/05/10 11:28:30;;;;;;;4.45;2.20;;;;;;;21.21;22.50;101132.11;1726154;80;21077;-67
2021/05/10 11:31:07;;;;;;;3.65;2.12;;;;;;;21.21;22.47;101136.28;1738226;80;21228;-63
2021/05/10 11:34:02;;;;;;;2.70;2.00;;;;;;;21.30;22.62;101121.97;1683419;83;21070;-63
2021/05/10 11:36:35;;;;;;;;;;;;;;;21.43;22.32;101116.08;1726517;81;21324;-66
2021/05/10 11:39:08;;;;;;;3.58;2.10;;;;;;;21.52;22.26;101118.77;1726739;81;20279;-68
2021/05/10 11:41:45;;;;;;;5.30;2.10;;;;;;;21.56;22.23;101118.56;1738645;81;21097;-64
2021/05/10 11:44:24;;;;;;;2.67;1.98;;;;;;;21.62;22.06;101112.52;1723873;82;21184;-65